createdAt,value
2023-05-02T00:01:06.054Z,58.10
2023-05-02T00:03:07.655Z,58.10
2023-05-02T00:04:03.971Z,58.10
2023-05-02T00:05:03.514Z,58.20
2023-05-02T00:06:06.746Z,58.20
2023-05-02T00:09:06.019Z,58.40
2023-05-02T00:10:06.372Z,58.40
2023-05-02T00:11:06.312Z,58.40
2023-05-02T00:13:04.285Z,58.30
2023-05-02T00:15:06.811Z,58.20
2023-05-02T00:17:06.509Z,58.40
2023-05-02T00:20:04.267Z,58.30
2023-05-02T00:21:08.911Z,58.30
2023-05-02T00:22:04.376Z,58.30
2023-05-02T00:23:03.842Z,58.20
2023-05-02T00:24:07.025Z,58.30
2023-05-02T00:27:03.650Z,58.30
2023-05-02T00:28:09.439Z,58.40
2023-05-02T00:29:03.913Z,58.30
2023-05-02T00:30:04.497Z,58.40
2023-05-02T00:32:03.593Z,58.20
2023-05-02T00:33:04.310Z,58.50
2023-05-02T00:34:06.429Z,58.60
2023-05-02T00:35:06.432Z,58.60
2023-05-02T00:36:06.369Z,58.60
2023-05-02T00:38:04.253Z,58.40
2023-05-02T00:39:06.311Z,58.50
2023-05-02T00:40:06.226Z,58.80
2023-05-02T00:41:03.715Z,58.70
2023-05-02T00:42:06.801Z,58.90
2023-05-02T00:44:03.822Z,58.70
2023-05-02T00:45:04.390Z,58.70
2023-05-02T00:46:04.015Z,58.60
2023-05-02T00:47:03.563Z,58.50
2023-05-02T00:48:04.344Z,58.50
2023-05-02T00:49:03.944Z,58.60
2023-05-02T00:51:06.856Z,58.50
2023-05-02T00:53:06.612Z,58.40
2023-05-02T00:54:04.087Z,58.40
2023-05-02T00:55:03.618Z,58.50
2023-05-02T00:56:04.198Z,58.60
2023-05-02T00:57:06.369Z,58.40
2023-05-02T00:58:03.874Z,58.40
2023-05-02T00:59:04.422Z,58.40
2023-05-02T01:00:06.491Z,58.20
2023-05-02T01:01:03.939Z,58.20
2023-05-02T01:02:03.725Z,58.40
2023-05-02T01:03:04.656Z,58.30
2023-05-02T01:04:04.590Z,58.30
2023-05-02T01:05:04.163Z,58.30
2023-05-02T01:06:03.705Z,58.40
2023-05-02T01:07:04.270Z,58.30
2023-05-02T01:09:03.453Z,58.30
2023-05-02T01:10:04.091Z,58.50
2023-05-02T01:11:06.155Z,58.80
2023-05-02T01:12:03.759Z,58.60
2023-05-02T01:13:07.036Z,58.90
2023-05-02T01:14:06.046Z,58.70
2023-05-02T01:16:04.137Z,58.80
2023-05-02T01:17:06.277Z,58.70
2023-05-02T01:18:08.862Z,58.60
2023-05-02T01:20:04.282Z,58.50
2023-05-02T01:22:04.082Z,58.50
2023-05-02T01:23:11.294Z,58.50
2023-05-02T01:25:04.275Z,58.50
2023-05-02T01:26:06.354Z,58.70
2023-05-02T01:27:08.821Z,58.70
2023-05-02T01:28:04.203Z,58.70
2023-05-02T01:29:03.643Z,58.50
2023-05-02T01:30:06.838Z,58.70
2023-05-02T01:32:06.553Z,58.60
2023-05-02T01:33:06.950Z,58.70
2023-05-02T01:34:06.972Z,58.50
2023-05-02T01:35:06.925Z,58.80
2023-05-02T01:36:06.855Z,58.70
2023-05-02T01:37:06.789Z,58.70
2023-05-02T01:39:06.263Z,58.80
2023-05-02T01:41:06.772Z,58.80
2023-05-02T01:44:06.800Z,58.70
2023-05-02T01:45:06.725Z,58.70
2023-05-02T01:47:03.989Z,58.90
2023-05-02T01:49:06.842Z,59.00
2023-05-02T01:51:06.348Z,59.00
2023-05-02T01:53:04.338Z,58.90
2023-05-02T01:54:03.899Z,58.90
2023-05-02T01:55:06.057Z,58.90
2023-05-02T01:56:03.464Z,59.00
2023-05-02T01:57:11.557Z,59.20
2023-05-02T01:59:04.496Z,59.40
2023-05-02T02:00:04.593Z,59.30
2023-05-02T02:01:06.088Z,59.30
2023-05-02T02:02:06.191Z,59.10
2023-05-02T02:03:06.336Z,59.30
2023-05-02T02:04:06.445Z,59.40
2023-05-02T02:05:04.016Z,59.30
2023-05-02T02:06:06.264Z,59.40
2023-05-02T02:07:03.822Z,59.40
2023-05-02T02:08:03.778Z,59.20
2023-05-02T02:09:07.014Z,59.30
2023-05-02T02:10:06.093Z,59.40
2023-05-02T02:11:03.502Z,59.40
2023-05-02T02:12:03.854Z,59.40
2023-05-02T02:13:03.549Z,59.50
2023-05-02T02:14:08.113Z,59.40
2023-05-02T02:15:03.472Z,59.40
2023-05-02T02:16:06.548Z,59.60
2023-05-02T02:18:03.880Z,59.60
2023-05-02T02:19:06.982Z,60.00
2023-05-02T02:20:06.960Z,60.20
2023-05-02T02:21:04.471Z,60.20
2023-05-02T02:23:06.257Z,60.20
2023-05-02T02:24:03.681Z,60.20
2023-05-02T02:25:06.326Z,60.20
2023-05-02T02:27:09.392Z,60.40
2023-05-02T02:28:03.965Z,60.50
2023-05-02T02:29:03.499Z,60.20
2023-05-02T02:30:04.097Z,60.20
2023-05-02T02:32:06.165Z,60.30
2023-05-02T02:33:06.368Z,60.20
2023-05-02T02:35:04.275Z,60.30
2023-05-02T02:36:06.326Z,60.40
2023-05-02T02:37:06.282Z,60.20
2023-05-02T02:38:08.821Z,60.00
2023-05-02T02:39:04.212Z,60.00
2023-05-02T02:40:03.997Z,60.30
2023-05-02T02:41:08.646Z,60.40
2023-05-02T02:43:03.981Z,60.60
2023-05-02T02:44:03.587Z,60.70
2023-05-02T02:45:04.107Z,60.70
2023-05-02T02:46:06.289Z,60.70
2023-05-02T02:47:03.701Z,60.70
2023-05-02T02:48:09.378Z,60.70
2023-05-02T02:49:06.317Z,60.90
2023-05-02T02:51:04.424Z,61.40
2023-05-02T02:52:06.577Z,61.10
2023-05-02T02:53:04.022Z,61.20
2023-05-02T02:54:23.262Z,61.10
2023-05-02T02:55:04.306Z,61.20
2023-05-02T02:56:03.786Z,61.10
2023-05-02T02:57:08.066Z,61.00
2023-05-02T02:58:06.302Z,61.00
2023-05-02T02:59:06.307Z,61.20
2023-05-02T03:00:06.268Z,61.70
2023-05-02T03:01:03.671Z,61.80
2023-05-02T03:02:04.471Z,61.60
2023-05-02T03:03:06.696Z,61.60
2023-05-02T03:04:06.968Z,61.60
2023-05-02T03:06:04.057Z,61.40
2023-05-02T03:07:03.646Z,61.60
2023-05-02T03:08:04.233Z,61.80
2023-05-02T03:09:06.291Z,61.70
2023-05-02T03:11:04.316Z,61.70
2023-05-02T03:12:03.821Z,61.80
2023-05-02T03:13:04.381Z,62.00
2023-05-02T03:15:06.173Z,62.30
2023-05-02T03:17:04.229Z,62.40
2023-05-02T03:18:06.604Z,62.80
2023-05-02T03:19:06.608Z,62.90
2023-05-02T03:20:06.578Z,63.20
2023-05-02T03:22:06.223Z,63.40
2023-05-02T03:23:03.799Z,63.40
2023-05-02T03:24:04.311Z,63.30
2023-05-02T03:25:03.845Z,63.30
2023-05-02T03:26:06.929Z,63.40
2023-05-02T03:28:04.373Z,63.40
2023-05-02T03:29:03.913Z,63.60
2023-05-02T03:30:04.463Z,63.60
2023-05-02T03:31:06.725Z,63.80
2023-05-02T03:33:04.383Z,63.70
2023-05-02T03:36:06.710Z,63.80
2023-05-02T03:37:09.232Z,63.60
2023-05-02T03:38:03.721Z,63.70
2023-05-02T03:39:04.301Z,63.60
2023-05-02T03:40:06.335Z,63.80
2023-05-02T03:41:07.643Z,63.50
2023-05-02T03:42:04.072Z,63.60
2023-05-02T03:43:03.648Z,63.60
2023-05-02T03:44:06.697Z,64.00
2023-05-02T03:45:06.641Z,64.10
2023-05-02T03:46:06.556Z,63.90
2023-05-02T03:47:04.192Z,64.00
2023-05-02T03:48:06.433Z,64.00
2023-05-02T03:49:06.633Z,63.90
2023-05-02T03:50:04.066Z,63.80
2023-05-02T03:51:06.142Z,64.50
2023-05-02T03:52:06.093Z,64.80
2023-05-02T03:54:04.264Z,64.90
2023-05-02T03:55:08.978Z,64.70
2023-05-02T03:57:04.340Z,64.30
2023-05-02T03:58:06.404Z,64.80
2023-05-02T03:59:03.918Z,64.60
2023-05-02T04:00:03.642Z,64.60
2023-05-02T04:01:04.381Z,64.60
2023-05-02T04:02:04.108Z,64.80
2023-05-02T04:04:04.553Z,64.80
2023-05-02T04:05:04.221Z,64.70
2023-05-02T04:07:04.406Z,64.90
2023-05-02T04:08:06.542Z,64.90
2023-05-02T04:10:06.119Z,65.00
2023-05-02T04:11:06.078Z,64.90
2023-05-02T04:12:08.599Z,65.30
2023-05-02T04:13:09.144Z,65.40
2023-05-02T04:14:06.276Z,65.20
2023-05-02T04:15:03.776Z,65.30
2023-05-02T04:16:04.380Z,65.10
2023-05-02T04:17:04.220Z,65.30
2023-05-02T04:18:04.122Z,65.40
2023-05-02T04:20:06.059Z,65.50
2023-05-02T04:22:04.493Z,65.50
2023-05-02T04:24:06.086Z,65.40
2023-05-02T04:25:03.827Z,65.30
2023-05-02T04:26:06.276Z,65.30
2023-05-02T04:27:03.758Z,65.20
2023-05-02T04:28:04.277Z,65.40
2023-05-02T04:29:06.338Z,65.20
2023-05-02T04:31:04.018Z,65.20
2023-05-02T04:32:03.606Z,65.20
2023-05-02T04:33:09.517Z,65.30
2023-05-02T04:34:03.928Z,65.30
2023-05-02T04:35:06.719Z,65.30
2023-05-02T04:36:06.740Z,65.30
2023-05-02T04:38:11.353Z,65.80
2023-05-02T04:39:03.753Z,65.70
2023-05-02T04:40:04.348Z,65.70
2023-05-02T04:41:09.602Z,65.50
2023-05-02T04:42:06.028Z,65.80
2023-05-02T04:44:06.825Z,65.40
2023-05-02T04:45:04.330Z,65.40
2023-05-02T04:46:06.508Z,65.80
2023-05-02T04:47:06.477Z,65.80
2023-05-02T04:49:06.029Z,65.80
2023-05-02T04:50:03.694Z,65.80
2023-05-02T04:51:04.274Z,65.80
2023-05-02T04:52:06.320Z,66.00
2023-05-02T04:54:09.395Z,65.80
2023-05-02T04:56:03.628Z,66.00
2023-05-02T04:57:04.299Z,66.20
2023-05-02T04:58:06.556Z,66.10
2023-05-02T05:00:04.096Z,66.30
2023-05-02T05:01:03.744Z,66.50
2023-05-02T05:02:06.963Z,66.60
2023-05-02T05:03:03.537Z,66.60
2023-05-02T05:04:07.010Z,66.50
2023-05-02T05:05:03.710Z,66.50
2023-05-02T05:06:04.498Z,66.50
2023-05-02T05:07:04.119Z,66.50
2023-05-02T05:09:06.884Z,66.40
2023-05-02T05:11:11.500Z,66.40
2023-05-02T05:12:03.851Z,66.40
2023-05-02T05:13:06.950Z,66.60
2023-05-02T05:14:06.893Z,66.40
2023-05-02T05:17:03.578Z,66.60
2023-05-02T05:18:06.674Z,66.40
2023-05-02T05:19:11.841Z,65.60
2023-05-02T05:21:03.832Z,66.00
2023-05-02T05:22:07.033Z,65.90
2023-05-02T05:23:08.615Z,65.70
2023-05-02T05:25:04.067Z,65.50
2023-05-02T05:26:06.464Z,65.60
2023-05-02T05:27:03.949Z,65.60
2023-05-02T05:28:04.246Z,65.80
2023-05-02T05:29:06.346Z,69.90
2023-05-02T05:30:04.064Z,70.00
2023-05-02T05:31:03.719Z,68.50
2023-05-02T05:32:04.485Z,65.90
2023-05-02T05:33:06.841Z,66.20
2023-05-02T05:34:07.174Z,70.00
2023-05-02T05:35:06.183Z,70.10
2023-05-02T05:37:06.762Z,66.30
2023-05-02T05:38:06.689Z,66.20
2023-05-02T05:40:04.163Z,66.10
2023-05-02T05:41:03.940Z,69.50
2023-05-02T05:42:06.111Z,66.40
2023-05-02T05:43:06.613Z,66.20
2023-05-02T05:44:06.650Z,70.70
2023-05-02T05:45:04.203Z,70.80
2023-05-02T05:46:06.310Z,72.00
2023-05-02T05:47:06.356Z,71.70
2023-05-02T05:49:06.150Z,71.80
2023-05-02T05:51:03.486Z,71.80
2023-05-02T05:52:04.056Z,71.50
2023-05-02T05:54:06.863Z,71.60
2023-05-02T05:55:06.916Z,71.70
2023-05-02T05:56:06.998Z,71.60
2023-05-02T05:58:06.558Z,71.00
2023-05-02T05:59:06.495Z,70.90
2023-05-02T06:01:04.263Z,70.60
2023-05-02T06:02:09.036Z,70.00
2023-05-02T06:04:04.744Z,70.70
2023-05-02T06:05:04.766Z,71.00
2023-05-02T06:06:04.520Z,70.80
2023-05-02T06:07:04.205Z,70.80
2023-05-02T06:09:04.399Z,71.30
2023-05-02T06:11:03.605Z,72.20
2023-05-02T06:12:04.136Z,71.10
2023-05-02T06:13:06.222Z,70.90
2023-05-02T06:14:06.208Z,70.50
2023-05-02T06:16:04.514Z,70.10
2023-05-02T06:18:06.604Z,70.80
2023-05-02T06:21:07.045Z,70.50
2023-05-02T06:23:04.001Z,70.80
2023-05-02T06:25:04.213Z,70.30
2023-05-02T06:26:14.018Z,69.90
2023-05-02T06:28:04.033Z,70.00
2023-05-02T06:29:06.194Z,69.90
2023-05-02T06:31:06.729Z,69.70
2023-05-02T06:33:04.110Z,69.80
2023-05-02T06:34:03.767Z,70.00
2023-05-02T06:35:04.363Z,69.90
2023-05-02T06:36:06.019Z,70.10
2023-05-02T06:37:11.273Z,69.80
2023-05-02T06:39:06.988Z,70.00
2023-05-02T06:40:04.782Z,69.60
2023-05-02T06:41:04.350Z,69.80
2023-05-02T06:42:04.386Z,69.70
2023-05-02T06:44:06.926Z,70.00
2023-05-02T06:46:04.049Z,69.90
2023-05-02T06:47:06.407Z,69.90
2023-05-02T06:48:06.818Z,70.00
2023-05-02T06:49:04.324Z,70.00
2023-05-02T06:50:06.424Z,69.90
2023-05-02T06:51:09.523Z,69.60
2023-05-02T06:52:06.525Z,69.80
2023-05-02T06:54:06.289Z,70.20
2023-05-02T06:55:06.272Z,70.60
2023-05-02T06:56:06.238Z,70.50
2023-05-02T06:57:08.833Z,69.80
2023-05-02T06:58:04.304Z,69.60
2023-05-02T07:00:04.279Z,70.30
2023-05-02T07:01:04.136Z,70.10
2023-05-02T07:02:05.897Z,70.20
2023-05-02T07:03:06.432Z,70.00
2023-05-02T07:05:03.621Z,69.90
2023-05-02T07:06:04.136Z,69.80
2023-05-02T07:07:06.274Z,69.60
2023-05-02T07:08:06.294Z,70.00
2023-05-02T07:09:06.376Z,70.00
2023-05-02T07:10:08.982Z,69.80
2023-05-02T07:12:07.214Z,70.00
2023-05-02T07:13:03.783Z,69.80
2023-05-02T07:14:17.091Z,70.00
2023-05-02T07:16:04.199Z,70.20
2023-05-02T07:17:03.884Z,70.20
2023-05-02T07:18:03.629Z,70.00
2023-05-02T07:19:04.240Z,70.80
2023-05-02T07:20:06.462Z,70.10
2023-05-02T07:21:06.373Z,70.30
2023-05-02T07:22:03.833Z,70.20
2023-05-02T07:23:07.229Z,69.90
2023-05-02T07:24:06.312Z,69.60
2023-05-02T07:25:06.279Z,70.40
2023-05-02T07:26:06.609Z,70.40
2023-05-02T07:27:04.241Z,70.20
2023-05-02T07:28:03.800Z,70.20
2023-05-02T07:29:04.393Z,70.20
2023-05-02T07:32:03.680Z,70.10
2023-05-02T07:33:06.873Z,69.90
2023-05-02T07:35:06.598Z,70.00
2023-05-02T07:36:04.191Z,70.00
2023-05-02T07:37:03.834Z,69.70
2023-05-02T07:38:07.047Z,69.80
2023-05-02T07:39:03.548Z,70.00
2023-05-02T07:40:04.805Z,69.90
2023-05-02T07:41:06.114Z,69.70
2023-05-02T07:42:06.095Z,69.60
2023-05-02T07:43:03.593Z,69.50
2023-05-02T07:44:04.164Z,69.40
2023-05-02T07:45:06.293Z,69.50
2023-05-02T07:46:03.893Z,69.40
2023-05-02T07:47:06.108Z,69.60
2023-05-02T07:48:03.651Z,69.50
2023-05-02T07:49:04.243Z,69.40
2023-05-02T07:50:04.446Z,69.60
2023-05-02T07:51:11.749Z,68.80
2023-05-02T07:54:04.472Z,68.20
2023-05-02T07:55:06.618Z,68.00
2023-05-02T07:57:03.579Z,67.70
2023-05-02T07:58:06.818Z,68.00
2023-05-02T08:00:04.748Z,68.00
2023-05-02T08:01:04.464Z,68.10
2023-05-02T08:02:04.043Z,67.80
2023-05-02T08:03:03.973Z,67.70
2023-05-02T08:04:03.981Z,67.70
2023-05-02T08:06:04.560Z,67.40
2023-05-02T08:07:04.156Z,67.50
2023-05-02T08:08:06.281Z,66.90
2023-05-02T08:09:03.830Z,66.60
2023-05-02T08:10:04.909Z,66.40
2023-05-02T08:12:06.601Z,66.50
2023-05-02T08:14:03.571Z,66.20
2023-05-02T08:15:04.225Z,65.80
2023-05-02T08:16:06.389Z,65.30
2023-05-02T08:17:03.950Z,65.20
2023-05-02T08:18:03.659Z,64.90
2023-05-02T08:19:06.818Z,65.00
2023-05-02T08:21:04.095Z,64.90
2023-05-02T08:22:06.141Z,64.50
2023-05-02T08:23:09.225Z,64.20
2023-05-02T08:25:06.845Z,63.70
2023-05-02T08:27:03.788Z,63.90
2023-05-02T08:28:04.500Z,63.90
2023-05-02T08:30:04.483Z,64.40
2023-05-02T08:31:06.971Z,63.80
2023-05-02T08:32:04.596Z,64.00
2023-05-02T08:33:04.294Z,63.80
2023-05-02T08:34:06.524Z,63.80
2023-05-02T08:35:14.129Z,63.70
2023-05-02T08:36:06.110Z,63.60
2023-05-02T08:37:06.090Z,63.40
2023-05-02T08:39:09.304Z,62.00
2023-05-02T08:40:04.551Z,62.20
2023-05-02T08:41:06.826Z,61.60
2023-05-02T08:42:06.818Z,61.40
2023-05-02T08:44:06.273Z,61.60
2023-05-02T08:45:06.197Z,61.80
2023-05-02T08:46:06.142Z,61.60
2023-05-02T08:48:04.393Z,61.90
2023-05-02T08:49:04.129Z,61.60
2023-05-02T08:50:04.156Z,61.80
2023-05-02T08:51:03.875Z,62.00
2023-05-02T08:52:05.991Z,57.50
2023-05-02T08:53:04.381Z,57.30
2023-05-02T08:54:03.895Z,57.60
2023-05-02T08:55:04.185Z,57.70
2023-05-02T08:56:04.176Z,57.60
2023-05-02T08:57:06.262Z,57.70
2023-05-02T08:58:06.311Z,57.50
2023-05-02T09:00:06.936Z,56.40
2023-05-02T09:02:06.696Z,56.40
2023-05-02T09:03:06.929Z,56.40
2023-05-02T09:05:04.113Z,56.30
2023-05-02T09:07:04.293Z,56.00
2023-05-02T09:09:04.463Z,55.70
2023-05-02T09:10:04.076Z,55.50
2023-05-02T09:12:04.268Z,55.30
2023-05-02T09:14:03.488Z,55.20
2023-05-02T09:15:04.044Z,55.20
2023-05-02T09:17:04.514Z,55.50
2023-05-02T09:18:04.006Z,55.00
2023-05-02T09:19:06.246Z,55.00
2023-05-02T09:21:04.360Z,54.90
2023-05-02T09:22:06.604Z,55.20
2023-05-02T09:23:06.622Z,55.30
2023-05-02T09:24:04.095Z,55.30
2023-05-02T09:25:06.280Z,54.80
2023-05-02T09:26:06.295Z,55.00
2023-05-02T09:28:03.830Z,55.10
2023-05-02T09:29:06.987Z,55.30
2023-05-02T09:30:12.072Z,55.40
2023-05-02T09:32:04.141Z,55.10
2023-05-02T09:33:03.734Z,55.30
2023-05-02T09:34:04.484Z,55.70
2023-05-02T09:35:06.608Z,55.40
2023-05-02T09:37:06.431Z,54.90
2023-05-02T09:40:04.323Z,54.60
2023-05-02T09:42:06.206Z,54.30
2023-05-02T09:43:06.174Z,54.50
2023-05-02T09:44:06.262Z,54.50
2023-05-02T09:45:06.282Z,54.40
2023-05-02T09:47:07.223Z,53.60
2023-05-02T09:48:03.723Z,53.60
2023-05-02T09:49:04.412Z,53.60
2023-05-02T09:50:03.993Z,53.10
2023-05-02T09:51:08.690Z,52.80
2023-05-02T09:52:04.137Z,52.90
2023-05-02T09:53:03.676Z,53.00
2023-05-02T09:54:04.242Z,52.90
2023-05-02T09:55:03.828Z,53.00
2023-05-02T09:56:04.485Z,52.80
2023-05-02T09:57:06.577Z,53.00
2023-05-02T09:59:03.723Z,52.40
2023-05-02T10:00:04.346Z,52.20
2023-05-02T10:01:04.037Z,52.40
2023-05-02T10:03:07.002Z,52.90
2023-05-02T10:04:03.557Z,52.80
2023-05-02T10:05:04.604Z,52.80
2023-05-02T10:06:04.214Z,52.90
2023-05-02T10:07:06.562Z,52.90
2023-05-02T10:08:06.795Z,52.90
2023-05-02T10:09:04.244Z,52.70
2023-05-02T10:11:04.492Z,53.00
2023-05-02T10:12:06.496Z,53.10
2023-05-02T10:14:03.618Z,53.30
2023-05-02T10:15:06.684Z,53.10
2023-05-02T10:16:06.826Z,52.80
2023-05-02T10:17:06.956Z,52.90
2023-05-02T10:18:07.027Z,53.20
2023-05-02T10:19:06.028Z,53.20
2023-05-02T10:20:07.011Z,53.20
2023-05-02T10:22:09.036Z,53.00
2023-05-02T10:24:06.679Z,52.80
2023-05-02T10:25:04.594Z,52.70
2023-05-02T10:26:06.758Z,53.10
2023-05-02T10:27:06.681Z,53.00
2023-05-02T10:29:06.207Z,56.40
2023-05-02T10:30:08.669Z,57.00
2023-05-02T10:32:03.787Z,57.10
2023-05-02T10:33:06.117Z,56.00
2023-05-02T10:34:06.123Z,56.20
2023-05-02T10:35:03.869Z,56.90
2023-05-02T10:36:06.979Z,56.80
2023-05-02T10:37:08.628Z,56.60
2023-05-02T10:39:06.230Z,55.90
2023-05-02T10:41:06.816Z,55.80
2023-05-02T10:43:03.926Z,55.50
2023-05-02T10:44:08.715Z,54.90
2023-05-02T10:46:06.863Z,55.70
2023-05-02T10:47:07.053Z,55.50
2023-05-02T10:48:03.589Z,55.40
2023-05-02T10:49:04.128Z,55.30
2023-05-02T10:50:06.143Z,56.30
2023-05-02T10:51:06.161Z,56.10
2023-05-02T10:52:06.065Z,54.50
2023-05-02T10:53:03.570Z,54.50
2023-05-02T10:54:04.241Z,53.70
2023-05-02T10:57:04.228Z,52.60
2023-05-02T10:58:03.890Z,53.50
2023-05-02T10:59:06.081Z,52.90
2023-05-02T11:01:04.211Z,53.30
2023-05-02T11:02:06.292Z,52.90
2023-05-02T11:03:04.081Z,53.60
2023-05-02T11:04:08.808Z,53.20
2023-05-02T11:06:06.308Z,54.10
2023-05-02T11:07:06.437Z,53.10
2023-05-02T11:08:03.898Z,52.90
2023-05-02T11:09:05.967Z,52.90
2023-05-02T11:10:04.422Z,52.60
2023-05-02T11:11:04.057Z,52.90
2023-05-02T11:12:06.262Z,52.70
2023-05-02T11:13:08.867Z,50.10
2023-05-02T11:14:04.406Z,50.50
2023-05-02T11:15:04.109Z,50.50
2023-05-02T11:16:06.241Z,49.40
2023-05-02T11:18:03.640Z,49.10
2023-05-02T11:19:04.287Z,45.20
2023-05-02T11:20:06.369Z,43.30
2023-05-02T11:21:06.337Z,43.30
2023-05-02T11:22:13.909Z,42.70
2023-05-02T11:24:04.354Z,42.50
2023-05-02T11:25:03.915Z,42.10
2023-05-02T11:26:06.068Z,43.30
2023-05-02T11:27:06.153Z,43.70
2023-05-02T11:28:06.234Z,44.20
2023-05-02T11:29:03.689Z,44.10
2023-05-02T11:30:04.343Z,43.30
2023-05-02T11:32:06.074Z,42.60
2023-05-02T11:33:06.157Z,42.40
2023-05-02T11:34:08.733Z,43.00
2023-05-02T11:36:06.385Z,43.80
2023-05-02T11:38:04.436Z,43.60
2023-05-02T11:39:03.970Z,44.50
2023-05-02T11:40:14.185Z,44.20
2023-05-02T11:41:03.644Z,44.20
2023-05-02T11:42:04.287Z,42.50
2023-05-02T11:44:03.668Z,42.30
2023-05-02T11:45:04.852Z,42.00
2023-05-02T11:46:03.608Z,41.10
2023-05-02T11:47:04.202Z,41.70
2023-05-02T11:49:10.212Z,42.60
2023-05-02T11:50:06.196Z,42.40
2023-05-02T11:51:03.742Z,42.40
2023-05-02T11:52:04.353Z,42.20
2023-05-02T11:53:08.875Z,41.40
2023-05-02T11:54:04.301Z,41.50
2023-05-02T11:55:04.572Z,40.90
2023-05-02T11:56:04.146Z,40.20
2023-05-02T11:57:06.269Z,40.10
2023-05-02T11:58:03.933Z,40.10
2023-05-02T11:59:03.708Z,40.50
2023-05-02T12:00:04.223Z,43.70
2023-05-02T12:01:06.300Z,45.20
2023-05-02T12:02:06.367Z,45.80
2023-05-02T12:03:06.616Z,45.70
2023-05-02T12:04:06.926Z,45.80
2023-05-02T12:06:06.223Z,46.20
2023-05-02T12:07:06.611Z,46.80
2023-05-02T12:09:06.486Z,47.10
2023-05-02T12:10:06.497Z,47.00
2023-05-02T12:11:06.495Z,47.30
2023-05-02T12:13:06.045Z,47.70
2023-05-02T12:14:03.737Z,47.70
2023-05-02T12:15:04.544Z,47.80
2023-05-02T12:16:04.179Z,44.90
2023-05-02T12:17:08.837Z,48.40
2023-05-02T12:19:03.986Z,48.70
2023-05-02T12:21:06.707Z,49.50
2023-05-02T12:22:11.618Z,49.80
2023-05-02T12:24:06.135Z,49.90
2023-05-02T12:25:09.043Z,50.00
2023-05-02T12:27:08.671Z,49.60
2023-05-02T12:29:06.381Z,50.30
2023-05-02T12:31:04.463Z,50.10
2023-05-02T12:32:04.104Z,49.40
2023-05-02T12:34:06.208Z,49.40
2023-05-02T12:35:06.204Z,49.30
2023-05-02T12:37:04.228Z,50.40
2023-05-02T12:38:06.338Z,50.10
2023-05-02T12:39:06.290Z,50.40
2023-05-02T12:41:06.690Z,49.10
2023-05-02T12:42:06.731Z,49.10
2023-05-02T12:44:03.704Z,46.80
2023-05-02T12:45:09.364Z,46.10
2023-05-02T12:46:06.383Z,46.20
2023-05-02T12:47:09.099Z,45.80
2023-05-02T12:49:03.750Z,46.20
2023-05-02T12:50:04.937Z,46.60
2023-05-02T12:52:06.798Z,46.40
2023-05-02T12:53:09.346Z,46.50
2023-05-02T12:55:03.872Z,47.00
2023-05-02T12:56:04.233Z,47.20
2023-05-02T12:57:13.894Z,48.00
2023-05-02T12:59:03.930Z,48.40
2023-05-02T13:00:04.130Z,49.30
2023-05-02T13:01:03.982Z,49.40
2023-05-02T13:02:03.683Z,49.60
2023-05-02T13:03:07.029Z,49.70
2023-05-02T13:04:03.901Z,49.70
2023-05-02T13:05:03.864Z,50.30
2023-05-02T13:06:04.520Z,50.70
2023-05-02T13:07:04.229Z,50.90
2023-05-02T13:08:08.904Z,50.90
2023-05-02T13:10:04.692Z,51.20
2023-05-02T13:11:04.272Z,53.30
2023-05-02T13:13:04.495Z,52.30
2023-05-02T13:14:04.009Z,51.40
2023-05-02T13:15:03.731Z,51.40
2023-05-02T13:16:09.786Z,51.60
2023-05-02T13:17:03.789Z,51.80
2023-05-02T13:18:07.084Z,51.60
2023-05-02T13:19:18.500Z,51.60
2023-05-02T13:20:09.503Z,51.70
2023-05-02T13:21:04.123Z,51.60
2023-05-02T13:22:06.483Z,51.90
2023-05-02T13:23:03.958Z,51.70
2023-05-02T13:24:03.468Z,52.00
2023-05-02T13:25:09.089Z,52.10
2023-05-02T13:26:06.120Z,51.90
2023-05-02T13:28:04.043Z,52.10
2023-05-02T13:29:06.241Z,52.40
2023-05-02T13:30:08.961Z,52.50
2023-05-02T13:32:06.094Z,52.50
2023-05-02T13:33:03.718Z,52.50
2023-05-02T13:34:06.882Z,52.40
2023-05-02T13:36:09.166Z,52.10
2023-05-02T13:37:06.192Z,52.40
2023-05-02T13:38:03.762Z,52.40
2023-05-02T13:39:06.923Z,52.30
2023-05-02T13:41:04.378Z,53.00
2023-05-02T13:42:06.465Z,52.90
2023-05-02T13:43:04.145Z,52.30
2023-05-02T13:45:06.862Z,54.20
2023-05-02T13:47:06.712Z,51.30
2023-05-02T13:49:03.790Z,51.20
2023-05-02T13:50:05.033Z,51.20
2023-05-02T13:51:03.597Z,50.80
2023-05-02T13:52:04.171Z,50.90
2023-05-02T13:53:03.802Z,51.10
2023-05-02T13:54:04.527Z,50.80
2023-05-02T13:55:04.162Z,50.00
2023-05-02T13:56:06.227Z,49.60
2023-05-02T13:57:06.101Z,49.30
2023-05-02T13:59:07.999Z,49.40
2023-05-02T14:01:06.928Z,49.90
2023-05-02T14:03:06.238Z,49.30
2023-05-02T14:04:09.817Z,49.10
2023-05-02T14:06:06.315Z,49.70
2023-05-02T14:07:03.796Z,49.70
2023-05-02T14:08:04.408Z,49.40
2023-05-02T14:10:06.330Z,49.60
2023-05-02T14:11:07.258Z,49.60
2023-05-02T14:12:03.925Z,49.10
2023-05-02T14:13:03.544Z,48.90
2023-05-02T14:14:06.742Z,48.10
2023-05-02T14:15:06.872Z,48.40
2023-05-02T14:16:04.427Z,48.30
2023-05-02T14:17:04.265Z,48.50
2023-05-02T14:18:06.464Z,48.70
2023-05-02T14:19:06.467Z,48.90
2023-05-02T14:21:04.292Z,49.30
2023-05-02T14:22:03.939Z,49.10
2023-05-02T14:23:07.412Z,49.10
2023-05-02T14:24:09.142Z,48.00
2023-05-02T14:26:03.729Z,48.20
2023-05-02T14:27:04.348Z,48.50
2023-05-02T14:28:06.460Z,48.80
2023-05-02T14:29:06.470Z,48.70
2023-05-02T14:31:06.486Z,48.80
2023-05-02T14:33:03.821Z,49.10
2023-05-02T14:34:03.424Z,49.20
2023-05-02T14:35:06.589Z,48.70
2023-05-02T14:36:04.043Z,48.60
2023-05-02T14:38:04.200Z,48.80
2023-05-02T14:39:03.722Z,49.10
2023-05-02T14:40:04.948Z,49.20
2023-05-02T14:42:04.658Z,49.50
2023-05-02T14:43:04.939Z,49.40
2023-05-02T14:44:04.433Z,49.20
2023-05-02T14:45:06.542Z,49.70
2023-05-02T14:46:06.619Z,49.90
2023-05-02T14:47:04.252Z,49.70
2023-05-02T14:48:04.006Z,50.00
2023-05-02T14:49:06.191Z,50.00
2023-05-02T14:50:04.431Z,50.00
2023-05-02T14:51:04.469Z,49.90
2023-05-02T14:52:04.052Z,50.30
2023-05-02T14:53:03.628Z,51.80
2023-05-02T14:54:04.213Z,50.40
2023-05-02T14:55:06.379Z,50.60
2023-05-02T14:56:06.393Z,50.90
2023-05-02T14:57:06.543Z,50.70
2023-05-02T14:59:03.757Z,50.80
2023-05-02T15:00:05.168Z,50.60
2023-05-02T15:01:06.660Z,50.30
2023-05-02T15:03:11.562Z,50.20
2023-05-02T15:05:06.781Z,50.40
2023-05-02T15:06:06.888Z,50.70
2023-05-02T15:07:07.128Z,50.80
2023-05-02T15:08:03.687Z,50.70
2023-05-02T15:09:04.238Z,50.60
2023-05-02T15:10:06.503Z,50.60
2023-05-02T15:11:06.472Z,50.70
2023-05-02T15:13:03.625Z,50.50
2023-05-02T15:14:04.276Z,50.40
2023-05-02T15:15:03.915Z,50.00
2023-05-02T15:16:03.538Z,49.90
2023-05-02T15:17:04.224Z,50.80
2023-05-02T15:18:03.966Z,49.80
2023-05-02T15:19:03.602Z,49.80
2023-05-02T15:20:05.123Z,50.00
2023-05-02T15:21:08.928Z,50.20
2023-05-02T15:24:04.268Z,50.90
2023-05-02T15:25:05.854Z,49.40
2023-05-02T15:26:04.337Z,49.50
2023-05-02T15:27:06.477Z,49.80
2023-05-02T15:28:06.434Z,49.70
2023-05-02T15:29:06.514Z,49.90
2023-05-02T15:31:04.115Z,50.20
2023-05-02T15:32:06.397Z,50.20
2023-05-02T15:33:06.525Z,50.20
2023-05-02T15:34:04.119Z,50.20
2023-05-02T15:35:03.789Z,50.10
2023-05-02T15:36:06.866Z,50.20
2023-05-02T15:38:06.540Z,49.90
2023-05-02T15:39:06.631Z,49.90
2023-05-02T15:41:06.259Z,50.40
2023-05-02T15:43:04.373Z,50.60
2023-05-02T15:44:04.278Z,50.90
2023-05-02T15:45:03.890Z,51.20
2023-05-02T15:46:04.881Z,51.30
2023-05-02T15:48:04.183Z,51.80
2023-05-02T15:49:06.367Z,52.20
2023-05-02T15:51:03.986Z,51.90
2023-05-02T15:52:06.193Z,52.60
2023-05-02T15:53:08.824Z,52.60
2023-05-02T15:56:06.589Z,52.10
2023-05-02T15:58:06.306Z,52.10
2023-05-02T15:59:06.322Z,52.00
2023-05-02T16:01:04.218Z,52.20
2023-05-02T16:02:06.912Z,52.30
2023-05-02T16:03:04.137Z,52.40
2023-05-02T16:04:03.947Z,52.30
2023-05-02T16:06:06.703Z,52.30
2023-05-02T16:08:08.916Z,52.00
2023-05-02T16:10:05.070Z,51.90
2023-05-02T16:11:06.416Z,52.00
2023-05-02T16:13:04.341Z,52.30
2023-05-02T16:14:08.914Z,52.20
2023-05-02T16:17:04.264Z,52.20
2023-05-02T16:19:04.439Z,52.30
2023-05-02T16:20:04.859Z,52.40
2023-05-02T16:22:04.173Z,52.20
2023-05-02T16:23:03.720Z,52.20
2023-05-02T16:24:04.347Z,52.40